Time;durP1;ratioP1;P1;durP2;ratioP2;P2;SDS_P1;SDS_P2;PMS_P1;PMS_P2;Temp;Humidity;BMP_temperature;BMP_pressure;BME280_temperature;BME280_humidity;BME280_pressure;Samples;Min_cycle;Max_cycle;Signal;HPM_P1;HPM_P2
2023/04/15 00:01:59;;;;;;;12.93;6.82;;;8.10;99.90;;;;;;5070863;28;20102;-74
2023/04/15 00:04:26;;;;;;;12.40;6.63;;;8.10;99.90;;;;;;5071029;28;20032;-75
2023/04/15 00:06:52;;;;;;;15.00;7.22;;;8.00;99.90;;;;;;5071357;28;20480;-75
2023/04/15 00:09:18;;;;;;;11.80;7.22;;;8.00;99.90;;;;;;5072392;28;20377;-74
2023/04/15 00:11:45;;;;;;;17.45;7.95;;;8.00;99.90;;;;;;5072600;28;20072;-75
2023/04/15 00:14:12;;;;;;;14.48;7.38;;;7.90;99.90;;;;;;5070861;28;20041;-74
2023/04/15 00:16:37;;;;;;;11.73;6.43;;;7.90;99.90;;;;;;5071176;28;20438;-74
2023/04/15 00:19:03;;;;;;;10.60;6.55;;;7.80;99.90;;;;;;5072191;28;20037;-74
2023/04/15 00:21:29;;;;;;;15.15;7.57;;;7.80;99.90;;;;;;5072129;28;20036;-74
2023/04/15 00:23:55;;;;;;;13.00;7.32;;;7.80;99.90;;;;;;5070735;28;20045;-74
2023/04/15 00:26:21;;;;;;;12.52;7.03;;;7.80;99.90;;;;;;5070742;28;20098;-74
2023/04/15 00:28:46;;;;;;;16.35;7.05;;;7.70;99.90;;;;;;5070482;28;20049;-75
2023/04/15 00:31:12;;;;;;;15.48;7.70;;;7.70;99.90;;;;;;5070928;28;20040;-74
2023/04/15 00:33:37;;;;;;;13.15;6.97;;;7.70;99.90;;;;;;5070538;28;20539;-74
2023/04/15 00:36:04;;;;;;;16.25;8.23;;;7.70;99.90;;;;;;5071676;28;20040;-74
2023/04/15 00:38:33;;;;;;;11.60;7.32;;;7.70;99.90;;;;;;5071844;28;20059;-74
2023/04/15 00:40:58;;;;;;;13.70;6.68;;;7.60;99.90;;;;;;5071847;28;20046;-74
2023/04/15 00:43:25;;;;;;;16.05;6.93;;;7.60;99.90;;;;;;5070715;28;20492;-74
2023/04/15 00:45:53;;;;;;;13.40;8.13;;;7.60;99.90;;;;;;5070398;28;20044;-74
2023/04/15 00:48:19;;;;;;;12.98;8.02;;;7.50;99.90;;;;;;5070479;28;20044;-74
2023/04/15 00:50:45;;;;;;;12.13;7.55;;;7.50;99.90;;;;;;5070984;28;20106;-74
2023/04/15 00:53:11;;;;;;;10.40;7.10;;;7.50;99.90;;;;;;5070318;28;20500;-74
2023/04/15 00:55:37;;;;;;;13.20;7.85;;;7.50;99.90;;;;;;5070495;28;20389;-74
2023/04/15 00:58:02;;;;;;;15.18;7.15;;;7.50;99.90;;;;;;5070752;28;20119;-74
2023/04/15 01:00:29;;;;;;;12.60;7.43;;;7.50;99.90;;;;;;5071845;28;20036;-74
2023/04/15 01:02:54;;;;;;;12.20;8.05;;;7.40;99.90;;;;;;5070600;28;20488;-74
2023/04/15 01:05:20;;;;;;;14.15;8.60;;;7.40;99.90;;;;;;5070466;28;20094;-74
2023/04/15 01:07:47;;;;;;;12.50;7.55;;;7.40;99.90;;;;;;5071332;28;20553;-74
2023/04/15 01:10:13;;;;;;;10.48;7.20;;;7.30;99.90;;;;;;5070267;28;20036;-74
2023/04/15 01:12:39;;;;;;;15.43;8.38;;;7.30;99.90;;;;;;5053598;28;20128;-74
2023/04/15 01:15:05;;;;;;;15.70;8.35;;;7.30;99.90;;;;;;5070176;28;20040;-74
2023/04/15 01:17:31;;;;;;;15.45;7.32;;;7.20;99.90;;;;;;5070929;28;20036;-74
2023/04/15 01:19:57;;;;;;;13.10;8.00;;;7.30;99.90;;;;;;5070115;28;20515;-74
2023/04/15 01:22:25;;;;;;;13.18;8.32;;;7.30;99.90;;;;;;5070587;28;20051;-76
2023/04/15 01:25:00;;;;;;;13.35;8.45;;;7.20;99.90;;;;;;5069498;28;20072;-75
2023/04/15 01:27:26;;;;;;;13.75;8.07;;;7.20;99.90;;;;;;5070064;28;20052;-75
2023/04/15 01:29:52;;;;;;;13.52;7.93;;;7.20;99.90;;;;;;5069826;28;20040;-75
2023/04/15 01:32:18;;;;;;;13.90;9.98;;;7.20;99.90;;;;;;5071342;28;20040;-75
2023/04/15 01:34:44;;;;;;;12.50;8.52;;;7.10;99.90;;;;;;5069991;28;20037;-75
2023/04/15 01:37:10;;;;;;;9.50;8.13;;;7.20;99.90;;;;;;5069810;28;20047;-75
2023/04/15 01:39:36;;;;;;;11.63;7.85;;;7.20;99.90;;;;;;5068952;28;20040;-75
2023/04/15 01:42:02;;;;;;;13.20;8.30;;;7.20;99.90;;;;;;5068790;28;20036;-75
2023/04/15 01:44:27;;;;;;;9.85;7.00;;;7.10;99.90;;;;;;5070158;28;20090;-75
2023/04/15 01:46:53;;;;;;;10.45;6.60;;;7.20;99.90;;;;;;5068718;28;20036;-75
2023/04/15 01:49:18;;;;;;;13.07;8.73;;;7.20;99.90;;;;;;5070433;28;20411;-75
2023/04/15 01:51:44;;;;;;;11.27;7.65;;;7.00;99.90;;;;;;5070102;28;20033;-75
2023/04/15 01:54:10;;;;;;;14.43;8.82;;;7.00;99.90;;;;;;5052945;28;20052;-75
2023/04/15 01:56:35;;;;;;;14.90;8.75;;;7.00;99.90;;;;;;5071065;28;20553;-75
2023/04/15 01:59:02;;;;;;;17.52;9.73;;;7.00;99.90;;;;;;5070942;28;20037;-75
2023/04/15 02:01:28;;;;;;;11.93;8.02;;;7.10;99.90;;;;;;5070052;28;20051;-75
2023/04/15 02:03:53;;;;;;;11.05;7.60;;;7.10;99.90;;;;;;5069977;28;20044;-75
2023/04/15 02:06:19;;;;;;;13.15;8.35;;;7.10;99.90;;;;;;5069662;28;20044;-75
2023/04/15 02:08:45;;;;;;;11.45;8.27;;;7.10;99.90;;;;;;5073205;28;20048;-75
2023/04/15 02:11:10;;;;;;;13.95;9.35;;;7.10;99.90;;;;;;5073502;28;20101;-75
2023/04/15 02:13:36;;;;;;;14.52;9.57;;;7.00;99.90;;;;;;5073527;28;20068;-75
2023/04/15 02:16:02;;;;;;;13.55;9.25;;;7.00;99.90;;;;;;5055506;28;20040;-75
2023/04/15 02:18:28;;;;;;;14.38;9.23;;;7.00;99.90;;;;;;5071996;28;20120;-75
2023/04/15 02:20:54;;;;;;;15.73;10.05;;;7.00;99.90;;;;;;5073206;28;20412;-75
2023/04/15 02:23:20;;;;;;;13.80;9.32;;;7.00;99.90;;;;;;5074492;28;20048;-75
2023/04/15 02:25:46;;;;;;;16.88;9.10;;;7.00;99.90;;;;;;5072720;28;20094;-75
2023/04/15 02:28:11;;;;;;;17.00;9.45;;;6.90;99.90;;;;;;5074218;28;20082;-75
2023/04/15 02:30:37;;;;;;;15.75;9.88;;;6.90;99.90;;;;;;5073069;28;20079;-75
2023/04/15 02:33:03;;;;;;;14.68;10.40;;;6.90;99.90;;;;;;5072892;28;20047;-75
2023/04/15 02:35:28;;;;;;;15.32;10.73;;;6.90;99.90;;;;;;5072689;28;20097;-75
2023/04/15 02:37:54;;;;;;;16.35;10.43;;;6.80;99.90;;;;;;5070684;28;20515;-75
2023/04/15 02:40:19;;;;;;;13.63;9.73;;;6.80;99.90;;;;;;5067131;28;20029;-75
2023/04/15 02:42:45;;;;;;;15.75;10.13;;;6.80;99.90;;;;;;5073128;28;20120;-75
2023/04/15 02:45:11;;;;;;;19.55;11.77;;;6.80;99.90;;;;;;5072522;28;20496;-75
2023/04/15 02:47:40;;;;;;;22.63;11.02;;;6.70;99.90;;;;;;5072273;28;20041;-75
2023/04/15 02:50:12;;;;;;;16.70;10.65;;;6.70;99.90;;;;;;5071608;28;20064;-75
2023/04/15 02:52:41;;;;;;;20.52;12.43;;;6.70;99.90;;;;;;5054728;28;20041;-75
2023/04/15 02:55:08;;;;;;;20.27;12.45;;;6.80;99.90;;;;;;5072383;28;20036;-75
2023/04/15 02:57:36;;;;;;;18.75;12.93;;;6.80;99.90;;;;;;5073635;28;20080;-75
2023/04/15 03:00:03;;;;;;;18.38;11.45;;;6.80;99.90;;;;;;5072545;28;20516;-75
2023/04/15 03:02:33;;;;;;;18.05;12.07;;;6.90;99.90;;;;;;5072461;28;20041;-75
2023/04/15 03:04:59;;;;;;;18.02;12.43;;;6.80;99.90;;;;;;5072744;28;20048;-75
2023/04/15 03:07:25;;;;;;;17.67;12.20;;;6.70;99.90;;;;;;5072205;28;20538;-75
2023/04/15 03:09:50;;;;;;;17.73;10.80;;;6.80;99.90;;;;;;5073634;28;20600;-75
2023/04/15 03:12:18;;;;;;;19.02;12.43;;;6.70;99.90;;;;;;5072148;28;20047;-75
2023/04/15 03:14:44;;;;;;;21.52;13.57;;;6.80;99.90;;;;;;5071666;28;20082;-75
2023/04/15 03:17:10;;;;;;;18.95;11.63;;;6.70;99.90;;;;;;5072022;28;20131;-75
2023/04/15 03:19:35;;;;;;;16.67;11.18;;;6.80;99.90;;;;;;5072227;28;20055;-75
2023/04/15 03:22:01;;;;;;;23.00;12.68;;;6.70;99.90;;;;;;5072029;28;20076;-75
2023/04/15 03:24:28;;;;;;;19.90;12.98;;;6.70;99.90;;;;;;5073257;28;20135;-75
2023/04/15 03:26:54;;;;;;;18.35;12.55;;;6.70;99.90;;;;;;5071803;28;20049;-75
2023/04/15 03:29:19;;;;;;;21.77;13.70;;;6.70;99.90;;;;;;5073017;28;20039;-75
2023/04/15 03:31:45;;;;;;;19.90;13.38;;;6.70;99.90;;;;;;5071830;28;20047;-75
2023/04/15 03:34:11;;;;;;;18.52;13.23;;;6.60;99.90;;;;;;5073103;28;20068;-75
2023/04/15 03:36:36;;;;;;;27.35;17.00;;;6.60;99.90;;;;;;5072964;28;20040;-75
2023/04/15 03:39:03;;;;;;;26.80;17.42;;;6.60;99.90;;;;;;5071646;28;20044;-75
2023/04/15 03:41:28;;;;;;;27.95;16.50;;;6.60;99.90;;;;;;5071769;28;20373;-75
2023/04/15 03:43:57;;;;;;;27.70;15.80;;;6.70;99.90;;;;;;5071497;28;20047;-75
2023/04/15 03:46:22;;;;;;;23.45;14.10;;;6.70;99.90;;;;;;5072853;28;20043;-75
2023/04/15 03:48:48;;;;;;;23.50;13.30;;;6.70;99.90;;;;;;5072652;28;20044;-75
2023/04/15 03:51:13;;;;;;;22.35;13.90;;;6.70;99.90;;;;;;5072778;28;20037;-75
2023/04/15 03:53:39;;;;;;;27.05;14.10;;;6.70;99.90;;;;;;5072645;28;20101;-75
2023/04/15 03:56:05;;;;;;;20.55;12.10;;;6.70;99.90;;;;;;5071114;28;20049;-75
2023/04/15 03:58:31;;;;;;;21.40;12.55;;;6.60;99.90;;;;;;5072466;28;20178;-75
2023/04/15 04:00:59;;;;;;;20.98;12.57;;;6.60;99.90;;;;;;5072367;28;20047;-75
2023/04/15 04:03:25;;;;;;;18.40;11.32;;;6.50;99.90;;;;;;5071262;28;20046;-75
2023/04/15 04:05:51;;;;;;;19.83;12.07;;;6.50;99.90;;;;;;5070920;28;20036;-75
2023/04/15 04:08:18;;;;;;;17.02;11.05;;;6.50;99.90;;;;;;5071140;28;20046;-75
2023/04/15 04:10:44;;;;;;;19.83;10.55;;;6.40;99.90;;;;;;5054446;28;20036;-75
2023/04/15 04:13:09;;;;;;;17.55;11.48;;;6.40;99.90;;;;;;5070971;28;20055;-75
2023/04/15 04:15:35;;;;;;;16.30;10.30;;;6.30;99.90;;;;;;5070834;28;20051;-75
2023/04/15 04:18:00;;;;;;;17.95;12.10;;;6.30;99.90;;;;;;5072171;28;20033;-75
2023/04/15 04:20:26;;;;;;;17.90;11.52;;;6.20;99.90;;;;;;5070914;28;20036;-75
2023/04/15 04:22:51;;;;;;;21.02;11.88;;;6.20;99.90;;;;;;5070827;28;20055;-75
2023/04/15 04:25:17;;;;;;;19.70;11.60;;;6.20;99.90;;;;;;5070748;28;20048;-75
2023/04/15 04:27:44;;;;;;;17.42;11.52;;;6.10;99.90;;;;;;5070584;28;20555;-75
2023/04/15 04:30:10;;;;;;;16.83;11.18;;;6.10;99.90;;;;;;5070587;28;20049;-75
2023/04/15 04:32:35;;;;;;;20.33;11.60;;;6.10;99.90;;;;;;5070699;28;20119;-75
2023/04/15 04:35:01;;;;;;;18.85;11.45;;;6.20;99.90;;;;;;5070478;28;20509;-75
2023/04/15 04:37:27;;;;;;;19.30;12.75;;;6.20;99.90;;;;;;5071769;28;20404;-75
2023/04/15 04:39:52;;;;;;;18.83;11.02;;;6.20;99.90;;;;;;5071718;28;20036;-75
2023/04/15 04:42:18;;;;;;;16.38;10.50;;;6.20;99.90;;;;;;5070412;28;20035;-75
2023/04/15 04:44:44;;;;;;;18.17;11.45;;;6.20;99.90;;;;;;5070662;28;20137;-75
2023/04/15 04:47:09;;;;;;;19.80;11.00;;;6.10;99.90;;;;;;5070298;28;20033;-75
2023/04/15 04:49:35;;;;;;;17.92;11.35;;;6.20;99.90;;;;;;5085515;22;20044;-72
2023/04/15 04:52:01;;;;;;;16.60;10.85;;;6.20;99.90;;;;;;5036524;28;20095;-72
2023/04/15 04:54:27;;;;;;;16.45;11.18;;;6.20;99.90;;;;;;5053406;28;20041;-72
2023/04/15 04:56:52;;;;;;;17.60;10.57;;;6.10;99.90;;;;;;5037252;28;20045;-72
2023/04/15 04:59:18;;;;;;;18.17;11.48;;;6.10;99.90;;;;;;5053896;28;20050;-72
2023/04/15 05:01:43;;;;;;;19.00;12.30;;;6.10;99.90;;;;;;5053836;28;20068;-72
2023/04/15 05:04:09;;;;;;;16.25;11.77;;;6.00;99.90;;;;;;5053474;28;20488;-72
2023/04/15 05:06:35;;;;;;;18.20;12.02;;;6.10;99.90;;;;;;5053744;28;20560;-72
2023/04/15 05:09:02;;;;;;;18.60;12.15;;;5.90;99.90;;;;;;5053502;28;20161;-72
2023/04/15 05:11:28;;;;;;;18.92;11.75;;;6.00;99.90;;;;;;5053678;28;20041;-72
2023/04/15 05:13:53;;;;;;;19.55;11.80;;;5.90;99.90;;;;;;5036780;28;20109;-72
2023/04/15 05:16:19;;;;;;;20.83;12.77;;;6.00;99.90;;;;;;5053241;28;20033;-72
2023/04/15 05:18:45;;;;;;;18.40;12.68;;;6.00;99.90;;;;;;5053412;28;20064;-72
2023/04/15 05:21:10;;;;;;;18.98;12.50;;;6.10;99.90;;;;;;5053362;28;20098;-72
2023/04/15 05:23:36;;;;;;;19.92;13.90;;;6.10;99.90;;;;;;5071431;28;20076;-72
2023/04/15 05:26:02;;;;;;;21.63;12.38;;;6.10;99.90;;;;;;5053613;28;20037;-72
2023/04/15 05:28:28;;;;;;;20.98;12.57;;;6.20;99.90;;;;;;5053486;28;20040;-72
2023/04/15 05:30:54;;;;;;;19.35;12.88;;;6.20;99.90;;;;;;5071381;28;20040;-72
2023/04/15 05:33:19;;;;;;;19.65;13.23;;;6.20;99.90;;;;;;5053263;28;20484;-72
2023/04/15 05:35:45;;;;;;;24.45;13.82;;;6.30;99.90;;;;;;5053131;28;20086;-72
2023/04/15 05:38:11;;;;;;;20.73;13.15;;;6.40;99.90;;;;;;5071212;28;20086;-72
2023/04/15 05:40:36;;;;;;;19.27;13.07;;;6.40;99.90;;;;;;5071547;28;20040;-71
2023/04/15 05:43:02;;;;;;;20.73;13.40;;;6.50;99.90;;;;;;5074388;28;20549;-72
2023/04/15 05:45:27;;;;;;;22.42;13.63;;;6.60;99.90;;;;;;5075019;28;20068;-72
2023/04/15 05:47:53;;;;;;;21.80;13.48;;;6.70;99.90;;;;;;5057175;28;20041;-72
2023/04/15 05:50:20;;;;;;;25.85;13.73;;;6.80;99.90;;;;;;5074857;28;20036;-72
2023/04/15 05:52:45;;;;;;;19.52;12.00;;;6.80;99.90;;;;;;5074797;28;20129;-72
2023/04/15 05:55:11;;;;;;;20.48;12.73;;;6.80;99.90;;;;;;5056934;28;20115;-72
2023/04/15 05:57:37;;;;;;;19.63;12.52;;;6.90;99.90;;;;;;5074642;28;20032;-72
2023/04/15 06:00:04;;;;;;;21.17;13.68;;;7.00;99.90;;;;;;5056876;28;20040;-72
2023/04/15 06:02:30;;;;;;;17.25;12.73;;;7.00;99.90;;;;;;5057204;28;20067;-72
2023/04/15 06:04:56;;;;;;;21.02;11.68;;;7.10;99.90;;;;;;5074594;28;20045;-72
2023/04/15 06:07:22;;;;;;;23.45;12.32;;;7.20;99.90;;;;;;5074500;28;20086;-72
2023/04/15 06:09:48;;;;;;;19.35;12.27;;;7.10;99.90;;;;;;5074856;28;20052;-72
2023/04/15 06:12:14;;;;;;;16.23;12.18;;;7.20;99.90;;;;;;5056512;28;20697;-73
2023/04/15 06:14:40;;;;;;;20.65;11.38;;;7.20;99.90;;;;;;5074194;28;20570;-73
2023/04/15 06:17:06;;;;;;;16.25;11.77;;;7.30;99.90;;;;;;5056729;28;20040;-74
2023/04/15 06:19:32;;;;;;;17.15;11.10;;;7.30;99.90;;;;;;5056761;28;20040;-73
2023/04/15 06:21:58;;;;;;;19.42;11.77;;;7.30;99.90;;;;;;5074330;28;20032;-73
2023/04/15 06:24:23;;;;;;;19.55;11.23;;;7.40;99.90;;;;;;5074217;28;20094;-73
2023/04/15 06:26:49;;;;;;;21.40;13.07;;;7.50;99.90;;;;;;5056513;28;20048;-73
2023/04/15 06:29:15;;;;;;;18.52;10.77;;;7.50;99.90;;;;;;5056270;28;20044;-73
2023/04/15 06:31:40;;;;;;;16.50;10.80;;;7.50;99.90;;;;;;5074343;28;20036;-73
2023/04/15 06:34:06;;;;;;;16.35;10.63;;;7.50;99.90;;;;;;5056241;28;20420;-73
2023/04/15 06:36:32;;;;;;;17.88;11.35;;;7.50;99.90;;;;;;5055981;28;20029;-73
2023/04/15 06:38:57;;;;;;;21.92;10.63;;;7.60;99.90;;;;;;5074084;28;20044;-73
2023/04/15 06:41:23;;;;;;;19.08;12.25;;;7.60;99.90;;;;;;5056090;28;20041;-73
2023/04/15 06:43:49;;;;;;;17.25;11.07;;;7.70;99.90;;;;;;5056186;28;20047;-73
2023/04/15 06:46:15;;;;;;;15.15;10.52;;;7.80;99.90;;;;;;5055892;28;20048;-73
2023/04/15 06:48:40;;;;;;;16.58;10.80;;;7.80;99.90;;;;;;5073757;28;20033;-72
2023/04/15 06:51:06;;;;;;;17.25;9.95;;;7.90;99.90;;;;;;5073833;28;20062;-74
2023/04/15 06:53:31;;;;;;;17.30;10.65;;;8.00;99.90;;;;;;5055830;28;20404;-75
2023/04/15 06:55:57;;;;;;;15.18;9.38;;;8.10;99.90;;;;;;5055465;28;20032;-73
2023/04/15 06:58:22;;;;;;;16.15;9.45;;;8.10;99.90;;;;;;5055780;28;20033;-72
2023/04/15 07:00:48;;;;;;;13.73;9.55;;;8.20;99.90;;;;;;5055895;28;20043;-73
2023/04/15 07:03:14;;;;;;;15.50;9.77;;;8.30;99.90;;;;;;5073641;28;20113;-73
2023/04/15 07:05:40;;;;;;;16.52;10.00;;;8.40;99.90;;;;;;5073279;28;20120;-74
2023/04/15 07:08:06;;;;;;;15.70;9.00;;;8.40;99.90;;;;;;5038943;28;20487;-73
2023/04/15 07:10:33;;;;;;;14.55;8.95;;;8.50;99.90;;;;;;5055819;28;20586;-73
2023/04/15 07:12:58;;;;;;;15.27;9.25;;;8.60;99.90;;;;;;5038982;28;20040;-73
2023/04/15 07:15:24;;;;;;;15.93;8.98;;;8.60;99.90;;;;;;5073306;28;20086;-74
2023/04/15 07:17:50;;;;;;;15.50;9.85;;;8.50;99.90;;;;;;5055623;28;20090;-74
2023/04/15 07:20:15;;;;;;;13.43;8.55;;;8.70;99.90;;;;;;5055216;28;20484;-73
2023/04/15 07:22:41;;;;;;;13.10;8.27;;;8.70;99.90;;;;;;5073476;28;20028;-73
2023/04/15 07:25:07;;;;;;;16.45;8.85;;;8.80;99.90;;;;;;5055230;28;20500;-75
2023/04/15 07:27:33;;;;;;;15.80;8.93;;;8.80;99.90;;;;;;5054870;28;20507;-75
2023/04/15 07:29:59;;;;;;;14.43;8.77;;;8.90;99.90;;;;;;5054783;28;20072;-75
2023/04/15 07:32:24;;;;;;;15.70;8.80;;;8.90;99.90;;;;;;5037914;28;20045;-75
2023/04/15 07:34:50;;;;;;;12.18;7.22;;;8.90;99.90;;;;;;5072761;28;20033;-74
2023/04/15 07:37:16;;;;;;;10.73;7.68;;;8.90;99.90;;;;;;5054718;28;20047;-74
2023/04/15 07:39:42;;;;;;;14.32;7.50;;;8.80;99.90;;;;;;5054563;28;20028;-74
2023/04/15 07:42:08;;;;;;;15.82;8.02;;;8.80;99.90;;;;;;5054283;28;20086;-75
2023/04/15 07:44:33;;;;;;;13.50;7.00;;;8.90;99.90;;;;;;5054521;28;20040;-74
2023/04/15 07:46:59;;;;;;;12.52;6.22;;;8.90;99.90;;;;;;5054174;28;20399;-74
2023/04/15 07:49:25;;;;;;;8.30;6.32;;;8.90;99.90;;;;;;5072500;28;20032;-74
2023/04/15 07:51:50;;;;;;;8.90;6.03;;;8.90;99.90;;;;;;5037780;28;20129;-74
2023/04/15 07:54:16;;;;;;;12.68;6.22;;;8.90;99.90;;;;;;5054265;28;20074;-74
2023/04/15 07:56:42;;;;;;;9.82;5.70;;;8.90;99.90;;;;;;5038085;28;20138;-75
2023/04/15 07:59:08;;;;;;;8.30;5.55;;;9.00;99.90;;;;;;5054320;28;20043;-75
2023/04/15 08:01:34;;;;;;;9.93;5.72;;;9.00;99.90;;;;;;5037889;28;20075;-74
2023/04/15 08:04:00;;;;;;;11.50;6.25;;;9.00;99.90;;;;;;5054067;28;20071;-75
2023/04/15 08:06:26;;;;;;;11.18;7.13;;;9.10;99.90;;;;;;5054227;28;20488;-76
2023/04/15 08:08:53;;;;;;;9.48;5.50;;;9.10;99.90;;;;;;5054447;28;20633;-75
2023/04/15 08:11:20;;;;;;;8.85;5.40;;;9.10;99.90;;;;;;5054349;28;20083;-75
2023/04/15 08:13:46;;;;;;;9.13;5.50;;;9.00;99.90;;;;;;5054051;28;20484;-75
2023/04/15 08:16:26;;;;;;;11.48;5.22;;;9.00;99.90;;;;;;5071297;28;20032;-75
2023/04/15 08:18:56;;;;;;;8.82;4.68;;;9.00;99.90;;;;;;5069407;28;20039;-74
2023/04/15 08:21:22;;;;;;;11.23;5.22;;;9.00;99.90;;;;;;5054023;28;20073;-74
2023/04/15 08:23:49;;;;;;;7.00;4.38;;;9.00;99.90;;;;;;5045705;28;20052;-73
2023/04/15 08:26:14;;;;;;;9.35;4.55;;;9.00;99.90;;;;;;5071811;28;20041;-74
2023/04/15 08:28:41;;;;;;;8.07;4.43;;;9.00;99.90;;;;;;5054007;28;20043;-73
2023/04/15 08:31:08;;;;;;;11.43;4.40;;;8.90;99.90;;;;;;5053977;28;20044;-74
2023/04/15 08:33:33;;;;;;;9.27;5.05;;;8.90;99.90;;;;;;5054083;28;20405;-73
2023/04/15 08:35:59;;;;;;;12.30;4.65;;;8.90;99.90;;;;;;5054051;28;20123;-74
2023/04/15 08:38:24;;;;;;;8.32;4.43;;;8.90;99.90;;;;;;5053947;28;20039;-73
2023/04/15 08:40:50;;;;;;;9.73;4.25;;;8.90;99.90;;;;;;5054105;28;20036;-76
2023/04/15 08:43:27;;;;;;;6.07;4.47;;;8.90;99.90;;;;;;5053927;28;20044;-74
2023/04/15 08:45:53;;;;;;;7.07;3.60;;;8.90;99.90;;;;;;5053625;28;20090;-74
2023/04/15 08:48:20;;;;;;;6.53;3.53;;;8.80;99.90;;;;;;5053659;28;20090;-74
2023/04/15 08:50:46;;;;;;;9.65;4.10;;;8.80;99.90;;;;;;5054156;28;20136;-75
2023/04/15 08:53:13;;;;;;;8.70;3.00;;;8.80;99.90;;;;;;5053683;28;20411;-74
2023/04/15 08:55:44;;;;;;;5.80;3.05;;;8.80;99.90;;;;;;5053516;28;20032;-74
2023/04/15 08:58:10;;;;;;;5.80;2.88;;;8.80;99.90;;;;;;5053603;28;20033;-74
2023/04/15 09:00:37;;;;;;;6.00;2.60;;;8.90;99.90;;;;;;5053910;28;20119;-74
2023/04/15 09:03:05;;;;;;;3.83;2.35;;;9.00;99.90;;;;;;5053716;28;20086;-74
2023/04/15 09:05:37;;;;;;;7.05;3.30;;;9.20;99.90;;;;;;5053395;28;20048;-73
2023/04/15 09:08:04;;;;;;;5.10;2.50;;;9.40;99.90;;;;;;5053525;28;20052;-74
2023/04/15 09:10:31;;;;;;;3.63;2.42;;;9.40;99.90;;;;;;5053886;28;20041;-75
2023/04/15 09:12:58;;;;;;;3.97;2.30;;;9.30;99.90;;;;;;5053411;28;20036;-74
2023/04/15 09:15:28;;;;;;;4.10;2.13;;;9.30;99.90;;;;;;5053512;28;20067;-74
2023/04/15 09:17:55;;;;;;;2.70;2.00;;;9.30;99.90;;;;;;5040040;28;20142;-75
2023/04/15 09:20:21;;;;;;;2.67;1.80;;;9.30;99.90;;;;;;5040997;28;20133;-75
2023/04/15 09:22:48;;;;;;;3.20;1.95;;;9.30;99.90;;;;;;5057803;28;20747;-75
2023/04/15 09:25:14;;;;;;;3.55;1.90;;;9.40;99.90;;;;;;5057360;28;20041;-74
2023/04/15 09:27:48;;;;;;;3.05;1.92;;;9.30;99.90;;;;;;5057387;28;20055;-74
2023/04/15 09:30:13;;;;;;;4.43;1.92;;;9.30;99.90;;;;;;5057351;28;20419;-74
2023/04/15 09:32:57;;;;;;;3.70;2.15;;;9.30;99.90;;;;;;5040786;28;20062;-74
2023/04/15 09:35:25;;;;;;;3.05;2.00;;;9.40;99.90;;;;;;5057164;28;20041;-74
2023/04/15 09:37:51;;;;;;;3.83;2.10;;;9.40;99.90;;;;;;5057144;28;20557;-75
2023/04/15 09:40:31;;;;;;;3.22;2.00;;;9.50;99.90;;;;;;5057265;28;20094;-73
2023/04/15 09:42:57;;;;;;;4.13;2.85;;;9.40;99.90;;;;;;5057287;28;20519;-75
2023/04/15 09:45:23;;;;;;;3.47;2.35;;;9.40;99.90;;;;;;5056936;28;20044;-74
2023/04/15 09:47:50;;;;;;;4.57;2.38;;;9.40;99.90;;;;;;5057232;28;20488;-75
2023/04/15 09:50:16;;;;;;;4.60;1.88;;;9.50;99.90;;;;;;5040220;28;20036;-75
2023/04/15 09:52:43;;;;;;;4.05;2.25;;;9.50;99.90;;;;;;5056951;28;20049;-74
2023/04/15 09:55:10;;;;;;;4.15;2.20;;;9.60;99.90;;;;;;5056992;28;20086;-75
2023/04/15 09:57:37;;;;;;;7.97;2.22;;;9.60;99.90;;;;;;5056803;28;20500;-75
2023/04/15 10:00:04;;;;;;;4.22;1.90;;;9.60;99.90;;;;;;5056951;28;20490;-75
2023/04/15 10:02:30;;;;;;;3.40;1.85;;;9.50;99.90;;;;;;5039830;28;20032;-74
2023/04/15 10:04:57;;;;;;;5.78;2.10;;;9.50;99.90;;;;;;5056643;28;20047;-75
2023/04/15 10:07:22;;;;;;;5.32;2.00;;;9.50;99.90;;;;;;5056891;28;20036;-74
2023/04/15 10:09:48;;;;;;;5.97;2.40;;;9.50;99.90;;;;;;5056033;28;20082;-74
2023/04/15 10:12:18;;;;;;;5.15;2.13;;;9.50;99.90;;;;;;5056505;28;20040;-74
2023/04/15 10:14:47;;;;;;;3.67;2.10;;;9.50;99.90;;;;;;5055940;28;20484;-74
2023/04/15 10:17:16;;;;;;;3.53;1.98;;;9.50;99.90;;;;;;5056549;28;20392;-75
2023/04/15 10:19:42;;;;;;;4.40;1.85;;;9.40;99.90;;;;;;5056602;28;20446;-74
2023/04/15 10:22:08;;;;;;;3.83;1.70;;;9.40;99.90;;;;;;5056810;28;20427;-74
2023/04/15 10:24:34;;;;;;;3.95;2.20;;;9.40;99.90;;;;;;5056363;28;20044;-75
2023/04/15 10:27:03;;;;;;;5.38;1.88;;;9.50;99.90;;;;;;5055885;28;20389;-75
2023/04/15 10:29:28;;;;;;;4.55;2.00;;;9.40;99.90;;;;;;5056154;28;20044;-74
2023/04/15 10:31:55;;;;;;;3.45;2.03;;;9.50;99.90;;;;;;5056342;28;20092;-74
2023/04/15 10:34:22;;;;;;;3.45;2.25;;;9.50;99.90;;;;;;5039597;28;20063;-75
2023/04/15 10:36:48;;;;;;;5.57;2.30;;;9.60;99.90;;;;;;5056098;28;20124;-74
2023/04/15 10:39:32;;;;;;;4.40;2.00;;;9.50;99.90;;;;;;5056280;28;20599;-76
2023/04/15 10:42:08;;;;;;;3.13;1.70;;;9.50;99.90;;;;;;5039791;28;20053;-75
2023/04/15 10:44:38;;;;;;;6.00;2.55;;;9.50;99.90;;;;;;5056144;28;20045;-75
2023/04/15 10:47:09;;;;;;;5.88;2.40;;;9.50;99.90;;;;;;5056048;28;20051;-75
2023/04/15 10:49:45;;;;;;;5.70;2.35;;;9.50;99.90;;;;;;5039288;28;20068;-74
2023/04/15 10:52:11;;;;;;;6.55;2.65;;;9.50;99.90;;;;;;5074076;28;20035;-74
2023/04/15 10:54:38;;;;;;;5.50;2.05;;;9.40;99.90;;;;;;5055719;28;20119;-75
2023/04/15 10:57:03;;;;;;;7.50;2.50;;;9.40;99.90;;;;;;5055212;28;20090;-75
2023/04/15 10:59:30;;;;;;;5.60;2.13;;;9.40;99.90;;;;;;5055971;28;20040;-73
2023/04/15 11:02:05;;;;;;;5.00;2.10;;;9.40;99.90;;;;;;5055699;28;20045;-73
2023/04/15 11:04:56;;;;;;;7.18;2.40;;;9.40;99.90;;;;;;5055640;28;20049;-73
2023/04/15 11:07:48;;;;;;;5.68;3.28;;;9.30;99.90;;;;;;5055801;28;20040;-73
2023/04/15 11:10:16;;;;;;;4.20;2.55;;;9.40;99.90;;;;;;5055603;28;20063;-73
2023/04/15 11:12:49;;;;;;;6.82;2.58;;;9.40;99.90;;;;;;5055747;28;20062;-73
2023/04/15 11:15:32;;;;;;;6.75;2.55;;;9.40;99.90;;;;;;5039153;28;20395;-73
2023/04/15 11:18:07;;;;;;;8.00;3.00;;;9.40;99.90;;;;;;5055616;28;20037;-73
2023/04/15 11:20:33;;;;;;;8.63;2.63;;;9.40;99.90;;;;;;5055444;28;20051;-73
2023/04/15 11:22:58;;;;;;;5.55;2.15;;;9.40;99.90;;;;;;5039085;28;20036;-74
2023/04/15 11:25:29;;;;;;;4.05;1.85;;;9.50;99.90;;;;;;5073046;28;20569;-73
2023/04/15 11:27:55;;;;;;;6.00;2.40;;;9.50;99.90;;;;;;5072906;28;20044;-74
2023/04/15 11:30:22;;;;;;;5.85;1.90;;;9.50;99.90;;;;;;5054895;28;20036;-73
2023/04/15 11:32:48;;;;;;;4.93;2.03;;;9.50;99.90;;;;;;5054835;28;20045;-73
2023/04/15 11:35:16;;;;;;;4.75;2.15;;;9.60;99.90;;;;;;5054433;28;20039;-73
2023/04/15 11:37:42;;;;;;;5.43;1.67;;;9.60;99.90;;;;;;5054375;28;20036;-74
2023/04/15 11:40:08;;;;;;;6.30;1.92;;;9.60;99.90;;;;;;5053979;28;20033;-74
2023/04/15 11:42:33;;;;;;;5.97;1.67;;;9.50;99.90;;;;;;5054736;28;20046;-74
2023/04/15 11:45:13;;;;;;;6.95;2.13;;;9.50;99.90;;;;;;5054762;28;20127;-74
2023/04/15 11:47:40;;;;;;;4.50;2.03;;;9.60;99.90;;;;;;5054765;28;20036;-73
2023/04/15 11:50:16;;;;;;;8.45;2.08;;;9.60;99.90;;;;;;5054733;28;20051;-72
2023/04/15 11:52:55;;;;;;;5.95;1.73;;;9.60;99.90;;;;;;5072485;28;20051;-73
2023/04/15 11:55:25;;;;;;;6.75;2.15;;;9.60;99.90;;;;;;5054384;28;20036;-72
2023/04/15 11:58:07;;;;;;;8.40;3.03;;;9.60;99.90;;;;;;5072632;28;20037;-73
2023/04/15 12:00:33;;;;;;;9.35;2.40;;;9.70;99.90;;;;;;5072560;28;20470;-73
2023/04/15 12:03:18;;;;;;;6.25;2.78;;;9.70;99.90;;;;;;5054651;28;20049;-74
2023/04/15 12:06:07;;;;;;;7.43;3.05;;;9.60;99.90;;;;;;5054288;28;20173;-72
2023/04/15 12:08:54;;;;;;;6.95;2.10;;;9.50;99.90;;;;;;5054462;28;20447;-73
2023/04/15 12:11:26;;;;;;;7.38;1.90;;;9.60;99.90;;;;;;5054452;28;20127;-73
2023/04/15 12:13:57;;;;;;;5.57;3.00;;;9.40;99.90;;;;;;5072133;28;20546;-73
2023/04/15 12:16:24;;;;;;;10.18;3.25;;;9.40;99.90;;;;;;5048880;28;20554;-73
2023/04/15 12:18:57;;;;;;;5.60;2.53;;;9.40;99.90;;;;;;5062293;28;20496;-73
2023/04/15 12:21:25;;;;;;;8.07;3.97;;;9.40;99.90;;;;;;5063384;28;20139;-73
2023/04/15 12:23:52;;;;;;;9.02;3.20;;;9.50;99.90;;;;;;5072246;28;20454;-73
2023/04/15 12:26:25;;;;;;;9.07;2.58;;;9.40;99.90;;;;;;5071689;28;20040;-73
2023/04/15 12:28:55;;;;;;;8.27;2.95;;;9.30;99.90;;;;;;5070780;28;20036;-73
2023/04/15 12:31:20;;;;;;;7.20;2.42;;;9.40;99.90;;;;;;5072111;28;20089;-73
2023/04/15 12:33:48;;;;;;;8.35;2.80;;;9.30;99.90;;;;;;5070176;28;20036;-73
2023/04/15 12:36:14;;;;;;;5.45;2.00;;;9.30;99.90;;;;;;5070497;28;20094;-73
2023/04/15 12:38:39;;;;;;;8.13;2.13;;;9.10;99.90;;;;;;5070647;28;20037;-73
2023/04/15 12:41:05;;;;;;;9.57;2.47;;;9.10;99.90;;;;;;5070537;28;20036;-73
2023/04/15 12:43:30;;;;;;;7.68;3.10;;;9.10;99.90;;;;;;5070580;28;20114;-74
2023/04/15 12:45:56;;;;;;;5.93;2.40;;;9.10;99.90;;;;;;5070309;28;20036;-73
2023/04/15 12:48:21;;;;;;;9.30;2.55;;;9.00;99.90;;;;;;5070360;28;20569;-74